createdAt,value
2023-01-19T00:01:27.493Z,99730.16
2023-01-19T00:03:55.378Z,99729.22
2023-01-19T00:06:23.230Z,99721.81
2023-01-19T00:08:51.251Z,99728.25
2023-01-19T00:11:19.363Z,99729.84
2023-01-19T00:13:50.584Z,99724.09
2023-01-19T00:16:23.087Z,99730.59
2023-01-19T00:18:52.668Z,99728.56
2023-01-19T00:21:21.638Z,99711.69
2023-01-19T00:23:51.362Z,99710.75
2023-01-19T00:26:22.089Z,99715.84
2023-01-19T00:28:51.037Z,99706.19
2023-01-19T00:31:21.809Z,99709.38
2023-01-19T00:33:52.644Z,99704.81
2023-01-19T00:36:20.677Z,99720.53
2023-01-19T00:38:48.560Z,99716.03
2023-01-19T00:41:16.615Z,99717.28
2023-01-19T00:43:43.677Z,99715.81
2023-01-19T00:46:11.822Z,99701.75
2023-01-19T00:48:41.040Z,99715.09
2023-01-19T00:51:10.506Z,99719.09
2023-01-19T00:53:38.310Z,99717.00
2023-01-19T00:56:06.964Z,99717.25
2023-01-19T00:58:34.793Z,99726.34
2023-01-19T01:01:04.860Z,99719.97
2023-01-19T01:03:32.990Z,99731.28
2023-01-19T01:06:03.665Z,99711.31
2023-01-19T01:08:33.329Z,99724.31
2023-01-19T01:11:01.221Z,99727.75
2023-01-19T01:13:29.597Z,99731.44
2023-01-19T01:15:58.356Z,99726.63
2023-01-19T01:18:26.909Z,99731.81
2023-01-19T01:20:56.294Z,99731.53
2023-01-19T01:23:25.782Z,99732.94
2023-01-19T01:25:53.976Z,99725.56
2023-01-19T01:28:22.079Z,99731.59
2023-01-19T01:30:53.994Z,99739.38
2023-01-19T01:33:40.057Z,99731.09
2023-01-19T01:36:10.386Z,99721.94
2023-01-19T01:38:39.610Z,99720.38
2023-01-19T01:41:07.865Z,99720.69
2023-01-19T01:43:47.228Z,99717.84
2023-01-19T01:46:17.204Z,99727.03
2023-01-19T01:48:50.884Z,99724.50
2023-01-19T01:51:25.393Z,99719.13
2023-01-19T01:54:04.634Z,99725.88
2023-01-19T01:56:36.375Z,99720.88
2023-01-19T01:59:07.502Z,99715.97
2023-01-19T02:01:53.277Z,99719.31
2023-01-19T02:04:22.799Z,99707.91
2023-01-19T02:07:08.272Z,99708.44
2023-01-19T02:09:56.426Z,99706.50
2023-01-19T02:12:42.138Z,99703.00
2023-01-19T02:15:17.073Z,99705.97
2023-01-19T02:17:45.131Z,99703.09
2023-01-19T02:20:13.545Z,99707.72
2023-01-19T02:22:47.588Z,99706.03
2023-01-19T02:25:18.874Z,99704.34
2023-01-19T02:27:47.407Z,99701.72
2023-01-19T02:30:16.839Z,99700.00
2023-01-19T02:32:44.900Z,99700.59
2023-01-19T02:35:13.946Z,99701.25
2023-01-19T02:37:43.303Z,99703.13
2023-01-19T02:40:14.320Z,99698.22
2023-01-19T02:42:45.990Z,99695.31
2023-01-19T02:45:16.286Z,99702.72
2023-01-19T02:47:46.484Z,99692.38
2023-01-19T02:50:43.693Z,99698.59
2023-01-19T02:53:43.873Z,99695.88
2023-01-19T02:56:46.294Z,99693.97
2023-01-19T02:59:24.371Z,99697.19
2023-01-19T03:02:10.511Z,99687.19
2023-01-19T03:04:54.868Z,99705.38
2023-01-19T03:07:31.737Z,99703.44
2023-01-19T03:10:05.069Z,99709.09
2023-01-19T03:12:41.226Z,99701.28
2023-01-19T03:15:18.382Z,99697.03
2023-01-19T03:17:47.439Z,99701.44
2023-01-19T03:20:18.890Z,99712.38
2023-01-19T03:22:50.200Z,99693.44
2023-01-19T03:25:20.542Z,99701.19
2023-01-19T03:27:52.200Z,99699.25
2023-01-19T03:30:25.312Z,99702.41
2023-01-19T03:32:57.434Z,99703.13
2023-01-19T03:35:30.160Z,99700.41
2023-01-19T03:38:00.251Z,99703.00
2023-01-19T03:40:31.194Z,99704.66
2023-01-19T03:43:00.488Z,99702.44
2023-01-19T03:45:32.664Z,99706.63
2023-01-19T03:48:00.810Z,99697.88
2023-01-19T03:50:31.265Z,99706.72
2023-01-19T03:53:06.547Z,99704.47
2023-01-19T03:55:34.903Z,99716.59
2023-01-19T03:58:02.742Z,99706.41
2023-01-19T04:00:32.235Z,99704.13
2023-01-19T04:03:00.709Z,99712.22
2023-01-19T04:05:29.469Z,99709.09
2023-01-19T04:07:57.660Z,99708.19
2023-01-19T04:10:26.265Z,99715.03
2023-01-19T04:12:58.498Z,99711.97
2023-01-19T04:15:26.751Z,99706.75
2023-01-19T04:17:58.081Z,99713.06
2023-01-19T04:20:27.107Z,99700.47
2023-01-19T04:22:56.144Z,99709.66
2023-01-19T04:25:24.080Z,99701.34
2023-01-19T04:27:53.997Z,99701.75
2023-01-19T04:30:22.658Z,99699.03
2023-01-19T04:32:50.802Z,99696.88
2023-01-19T04:35:21.426Z,99707.16
2023-01-19T04:37:49.249Z,99708.28
2023-01-19T04:40:17.537Z,99704.53
2023-01-19T04:42:45.997Z,99707.09
2023-01-19T04:45:14.890Z,99705.16
2023-01-19T04:47:43.278Z,99705.25
2023-01-19T04:50:12.195Z,99701.84
2023-01-19T04:52:41.426Z,99697.47
2023-01-19T04:55:10.484Z,99696.00
2023-01-19T04:57:38.304Z,99703.78
2023-01-19T05:00:07.586Z,99717.31
2023-01-19T05:02:36.168Z,99713.38
2023-01-19T05:05:04.606Z,99711.53
2023-01-19T05:07:32.528Z,99718.47
2023-01-19T05:10:01.895Z,99715.50
2023-01-19T05:12:29.741Z,99723.44
2023-01-19T05:14:57.527Z,99723.66
2023-01-19T05:17:25.402Z,99729.50
2023-01-19T05:19:53.228Z,99739.38
2023-01-19T05:22:21.001Z,99727.56
2023-01-19T05:24:48.837Z,99726.47
2023-01-19T05:27:18.047Z,99726.75
2023-01-19T05:29:45.861Z,99731.44
2023-01-19T05:32:14.408Z,99734.28
2023-01-19T05:34:42.186Z,99738.47
2023-01-19T05:37:10.067Z,99732.91
2023-01-19T05:39:38.149Z,99733.09
2023-01-19T05:42:06.347Z,99742.31
2023-01-19T05:44:35.812Z,99741.34
2023-01-19T05:47:03.757Z,99738.31
2023-01-19T05:49:31.612Z,99739.69
2023-01-19T05:51:59.403Z,99745.03
2023-01-19T05:54:27.259Z,99741.41
2023-01-19T05:56:55.055Z,99749.13
2023-01-19T05:59:24.194Z,99745.91
2023-01-19T06:01:54.565Z,99738.91
2023-01-19T06:04:22.701Z,99743.94
2023-01-19T06:06:50.947Z,99735.28
2023-01-19T06:09:18.996Z,99735.59
2023-01-19T06:11:47.463Z,99731.19
2023-01-19T06:14:15.498Z,99733.00
2023-01-19T06:16:44.046Z,99731.56
2023-01-19T06:19:13.805Z,99744.44
2023-01-19T06:21:41.756Z,99746.41
2023-01-19T06:24:12.174Z,99742.13
2023-01-19T06:26:42.494Z,99750.22
2023-01-19T06:29:10.853Z,99740.28
2023-01-19T06:31:38.756Z,99751.47
2023-01-19T06:34:06.884Z,99745.41
2023-01-19T06:36:36.144Z,99744.09
2023-01-19T06:39:05.919Z,99757.66
2023-01-19T06:41:34.340Z,99754.19
2023-01-19T06:44:02.573Z,99746.97
2023-01-19T06:46:30.440Z,99750.09
2023-01-19T06:48:58.416Z,99756.66
2023-01-19T06:51:26.482Z,99755.38
2023-01-19T06:53:55.641Z,99766.59
2023-01-19T06:56:23.490Z,99765.59
2023-01-19T06:58:51.969Z,99770.31
2023-01-19T07:01:20.328Z,99780.94
2023-01-19T07:03:48.259Z,99784.13
2023-01-19T07:06:16.413Z,99790.25
2023-01-19T07:08:44.245Z,99792.25
2023-01-19T07:11:24.948Z,99804.06
2023-01-19T07:13:59.123Z,99799.56
2023-01-19T07:16:27.123Z,99812.66
2023-01-19T07:18:54.989Z,99802.44
2023-01-19T07:21:23.117Z,99810.28
2023-01-19T07:23:51.915Z,99817.44
2023-01-19T07:26:22.080Z,99823.13
2023-01-19T07:28:50.318Z,99833.00
2023-01-19T07:31:19.079Z,99836.03
2023-01-19T07:33:47.637Z,99830.66
2023-01-19T07:36:15.518Z,99838.75
2023-01-19T07:38:43.373Z,99846.03
2023-01-19T07:41:11.814Z,99853.50
2023-01-19T07:43:41.242Z,99850.78
2023-01-19T07:46:09.255Z,99846.44
2023-01-19T07:48:37.113Z,99866.53
2023-01-19T07:51:11.101Z,99861.25
2023-01-19T07:53:41.842Z,99858.28
2023-01-19T07:56:10.259Z,99863.97
2023-01-19T07:58:38.130Z,99863.19
2023-01-19T08:01:09.038Z,99875.63
2023-01-19T08:03:37.099Z,99879.34
2023-01-19T08:06:06.164Z,99885.47
2023-01-19T08:08:34.904Z,99888.72
2023-01-19T08:11:03.166Z,99887.66
2023-01-19T08:13:30.962Z,99889.50
2023-01-19T08:15:58.953Z,99891.63
2023-01-19T08:18:28.188Z,99892.41
2023-01-19T08:20:56.111Z,99886.78
2023-01-19T08:23:23.986Z,99898.97
2023-01-19T08:25:51.842Z,99897.81
2023-01-19T08:28:20.144Z,99890.06
2023-01-19T08:30:54.181Z,99889.72
2023-01-19T08:33:25.332Z,99897.97
2023-01-19T08:35:55.431Z,99899.03
2023-01-19T08:38:23.216Z,99900.59
2023-01-19T08:40:51.070Z,99896.09
2023-01-19T08:43:19.386Z,99905.97
2023-01-19T08:45:51.955Z,99911.03
2023-01-19T08:48:22.508Z,99917.47
2023-01-19T08:50:51.789Z,99906.97
2023-01-19T08:53:23.727Z,99914.00
2023-01-19T08:55:55.372Z,99909.66
2023-01-19T08:58:23.401Z,99920.81
2023-01-19T09:00:52.728Z,99921.28
2023-01-19T09:03:23.015Z,99926.59
2023-01-19T09:05:51.740Z,99929.34
2023-01-19T09:08:21.194Z,99927.28
2023-01-19T09:10:50.527Z,99934.13
2023-01-19T09:13:19.397Z,99933.97
2023-01-19T09:15:47.607Z,99936.66
2023-01-19T09:18:17.710Z,99931.00
2023-01-19T09:20:47.023Z,99929.75
2023-01-19T09:23:16.837Z,99937.75
2023-01-19T09:25:48.411Z,99940.69
2023-01-19T09:28:18.026Z,99947.88
2023-01-19T09:30:46.170Z,99950.16
2023-01-19T09:33:16.520Z,99947.56
2023-01-19T09:35:45.650Z,99950.06
2023-01-19T09:38:16.311Z,99960.84
2023-01-19T09:40:49.212Z,99960.31
2023-01-19T09:43:26.189Z,99964.91
2023-01-19T09:45:58.756Z,99970.66
2023-01-19T09:48:43.743Z,99975.53
2023-01-19T09:51:16.161Z,99971.34
2023-01-19T09:53:56.644Z,99974.53
2023-01-19T09:56:26.276Z,99986.34
2023-01-19T09:58:54.378Z,99974.84
2023-01-19T10:01:35.700Z,99977.22
2023-01-19T10:04:20.040Z,99979.16
2023-01-19T10:06:48.963Z,99983.28
2023-01-19T10:09:25.980Z,99982.50
2023-01-19T10:12:02.445Z,99987.00
2023-01-19T10:14:36.417Z,99991.19
2023-01-19T10:17:17.752Z,99994.84
2023-01-19T10:19:49.552Z,99993.16
2023-01-19T10:22:22.259Z,99988.47
2023-01-19T10:24:54.858Z,99993.00
2023-01-19T10:27:27.386Z,99996.09
2023-01-19T10:29:56.593Z,99989.81
2023-01-19T10:32:26.259Z,100004.97
2023-01-19T10:34:58.290Z,100001.94
2023-01-19T10:37:31.764Z,100004.81
2023-01-19T10:40:03.754Z,100007.31
2023-01-19T10:42:32.997Z,100013.00
2023-01-19T10:45:00.887Z,100008.00
2023-01-19T10:47:35.187Z,100011.25
2023-01-19T10:50:19.625Z,100012.53
2023-01-19T10:52:52.081Z,100011.19
2023-01-19T10:55:29.995Z,100018.81
2023-01-19T10:58:00.548Z,100022.59
2023-01-19T11:00:34.451Z,100028.75
2023-01-19T11:03:03.491Z,100028.91
2023-01-19T11:05:33.130Z,100029.06
2023-01-19T11:08:01.557Z,100027.59
2023-01-19T11:10:30.387Z,100038.94
2023-01-19T11:13:07.517Z,100029.06
2023-01-19T11:15:42.154Z,100030.94
2023-01-19T11:18:10.291Z,100037.38
2023-01-19T11:20:50.915Z,100039.63
2023-01-19T11:23:27.979Z,100028.38
2023-01-19T11:25:58.881Z,100031.88
2023-01-19T11:28:31.362Z,100031.00
2023-01-19T11:31:01.413Z,100038.38
2023-01-19T11:33:35.716Z,100035.03
2023-01-19T11:36:06.356Z,100037.25
2023-01-19T11:38:43.439Z,100039.16
2023-01-19T11:41:19.945Z,100040.28
2023-01-19T11:43:52.646Z,100039.03
2023-01-19T11:46:21.939Z,100027.38
2023-01-19T11:48:57.462Z,100024.78
2023-01-19T11:51:29.774Z,100031.09
2023-01-19T11:53:57.959Z,100032.19
2023-01-19T11:56:29.965Z,100041.03
2023-01-19T11:58:59.152Z,100033.41
2023-01-19T12:01:31.196Z,100037.91
2023-01-19T12:04:04.489Z,100037.69
2023-01-19T12:06:36.545Z,100041.81
2023-01-19T12:09:12.696Z,100034.06
2023-01-19T12:11:45.197Z,100046.47
2023-01-19T12:14:20.347Z,100041.81
2023-01-19T12:16:49.246Z,100045.22
2023-01-19T12:19:19.996Z,100039.38
2023-01-19T12:21:49.005Z,100050.63
2023-01-19T12:24:19.677Z,100049.97
2023-01-19T12:26:54.978Z,100048.56
2023-01-19T12:29:28.959Z,100050.38
2023-01-19T12:32:19.143Z,100046.53
2023-01-19T12:34:47.656Z,100055.75
2023-01-19T12:37:42.136Z,100050.31
2023-01-19T12:40:24.621Z,100053.66
2023-01-19T12:42:59.448Z,100064.47
2023-01-19T12:45:33.309Z,100059.25
2023-01-19T12:48:02.431Z,100060.63
2023-01-19T12:50:34.293Z,100059.97
2023-01-19T12:53:03.812Z,100064.03
2023-01-19T12:55:33.329Z,100075.91
2023-01-19T12:58:05.232Z,100069.56
2023-01-19T13:00:39.884Z,100081.41
2023-01-19T13:03:45.628Z,100082.78
2023-01-19T13:06:13.577Z,100086.69
2023-01-19T13:08:59.417Z,100084.91
2023-01-19T13:11:31.329Z,100082.00
2023-01-19T13:14:36.640Z,100089.03
2023-01-19T13:17:19.563Z,100085.34
2023-01-19T13:20:08.224Z,100086.59
2023-01-19T13:23:17.531Z,100090.41
2023-01-19T13:25:50.405Z,100082.56
2023-01-19T13:28:19.979Z,100077.84
2023-01-19T13:30:56.927Z,100084.31
2023-01-19T13:33:28.544Z,100089.59
2023-01-19T13:35:58.996Z,100096.16
2023-01-19T13:38:28.678Z,100098.16
2023-01-19T13:40:58.242Z,100092.53
2023-01-19T13:43:30.117Z,100091.34
2023-01-19T13:45:58.169Z,100090.28
2023-01-19T13:48:27.517Z,100098.50
2023-01-19T13:51:02.447Z,100107.53
2023-01-19T13:53:30.653Z,100106.44
2023-01-19T13:56:20.896Z,100106.88
2023-01-19T13:59:05.096Z,100105.81
2023-01-19T14:01:33.341Z,100117.63
2023-01-19T14:04:02.871Z,100122.75
2023-01-19T14:06:39.773Z,100121.66
2023-01-19T14:09:19.264Z,100126.84
2023-01-19T14:11:49.734Z,100127.31
2023-01-19T14:14:37.198Z,100130.38
2023-01-19T14:17:05.341Z,100131.91
2023-01-19T14:19:52.637Z,100134.88
2023-01-19T14:22:20.799Z,100139.84
2023-01-19T14:24:48.715Z,100142.63
2023-01-19T14:27:25.586Z,100142.22
2023-01-19T14:29:54.780Z,100146.41
2023-01-19T14:32:24.350Z,100155.38
2023-01-19T14:35:13.148Z,100152.31
2023-01-19T14:37:48.867Z,100153.03
2023-01-19T14:40:20.043Z,100160.28
2023-01-19T14:42:52.792Z,100165.09
2023-01-19T14:45:23.616Z,100159.78
2023-01-19T14:47:57.507Z,100166.63
2023-01-19T14:50:30.107Z,100175.19
2023-01-19T14:53:00.619Z,100175.19
2023-01-19T14:55:34.468Z,100175.41
2023-01-19T14:58:02.350Z,100180.25
2023-01-19T15:00:30.542Z,100187.25
2023-01-19T15:02:58.689Z,100185.78
2023-01-19T15:05:28.471Z,100178.94
2023-01-19T15:07:56.655Z,100188.59
2023-01-19T15:10:26.031Z,100197.63
2023-01-19T15:12:55.528Z,100194.56
2023-01-19T15:15:30.295Z,100192.47
2023-01-19T15:17:58.764Z,100197.19
2023-01-19T15:20:28.218Z,100207.78
2023-01-19T15:22:56.206Z,100211.38
2023-01-19T15:25:26.141Z,100215.22
2023-01-19T15:27:54.309Z,100213.75
2023-01-19T15:30:24.884Z,100225.09
2023-01-19T15:32:52.844Z,100215.22
2023-01-19T15:35:22.719Z,100231.03
2023-01-19T15:37:52.191Z,100229.31
2023-01-19T15:40:22.712Z,100224.03
2023-01-19T15:42:50.858Z,100235.53
2023-01-19T15:45:37.232Z,100238.78
2023-01-19T15:48:07.068Z,100235.34
2023-01-19T15:50:37.146Z,100241.59
2023-01-19T15:53:06.595Z,100241.94
2023-01-19T15:55:34.633Z,100238.78
2023-01-19T15:58:02.672Z,100245.72
2023-01-19T16:00:31.430Z,100264.75
2023-01-19T16:02:59.838Z,100258.00
2023-01-19T16:05:41.553Z,100265.81
2023-01-19T16:08:12.411Z,100267.94
2023-01-19T16:10:40.683Z,100264.50
2023-01-19T16:13:08.856Z,100277.38
2023-01-19T16:15:37.342Z,100280.16
2023-01-19T16:18:06.201Z,100280.72
2023-01-19T16:20:34.280Z,100282.41
2023-01-19T16:23:14.595Z,100283.31
2023-01-19T16:25:44.629Z,100281.22
2023-01-19T16:28:12.510Z,100287.03
2023-01-19T16:30:40.432Z,100283.31
2023-01-19T16:33:11.761Z,100295.16
2023-01-19T16:35:39.609Z,100299.53
2023-01-19T16:38:09.453Z,100301.81
2023-01-19T16:40:37.624Z,100305.38
2023-01-19T16:43:07.000Z,100312.19
2023-01-19T16:45:35.772Z,100310.41
2023-01-19T16:48:03.778Z,100310.63
2023-01-19T16:50:31.568Z,100309.75
2023-01-19T16:52:59.510Z,100313.38
2023-01-19T16:55:27.542Z,100325.88
2023-01-19T16:57:56.555Z,100321.66
2023-01-19T17:00:25.900Z,100325.47
2023-01-19T17:02:55.212Z,100330.38
2023-01-19T17:05:24.167Z,100328.28
2023-01-19T17:07:52.007Z,100335.09
2023-01-19T17:10:19.996Z,100339.59
2023-01-19T17:12:47.841Z,100343.59
2023-01-19T17:15:15.755Z,100350.59
2023-01-19T17:17:45.068Z,100359.31
2023-01-19T17:20:13.782Z,100360.31
2023-01-19T17:22:41.980Z,100355.06
2023-01-19T17:25:10.304Z,100366.59
2023-01-19T17:27:38.169Z,100366.50
2023-01-19T17:30:06.710Z,100368.25
2023-01-19T17:32:34.637Z,100365.59
2023-01-19T17:35:04.058Z,100369.50
2023-01-19T17:37:32.017Z,100374.72
2023-01-19T17:39:59.937Z,100388.22
2023-01-19T17:42:27.876Z,100393.63
2023-01-19T17:44:58.778Z,100382.41
2023-01-19T17:47:26.660Z,100391.13
2023-01-19T17:49:54.449Z,100392.81
2023-01-19T17:52:23.709Z,100392.78
2023-01-19T17:54:51.653Z,100396.41
2023-01-19T17:57:19.467Z,100402.56
2023-01-19T17:59:48.338Z,100398.97
2023-01-19T18:02:16.581Z,100396.75
2023-01-19T18:04:44.718Z,100399.53
2023-01-19T18:07:12.508Z,100400.09
2023-01-19T18:09:41.778Z,100398.13
2023-01-19T18:12:09.719Z,100407.47
2023-01-19T18:14:37.572Z,100405.88
2023-01-19T18:17:05.746Z,100409.09
2023-01-19T18:19:33.712Z,100411.56
2023-01-19T18:22:01.578Z,100417.34
2023-01-19T18:24:29.658Z,100422.78
2023-01-19T18:26:58.980Z,100418.75
2023-01-19T18:29:26.907Z,100429.91
2023-01-19T18:31:54.966Z,100428.13
2023-01-19T18:34:22.786Z,100431.63
2023-01-19T18:36:50.666Z,100433.41
2023-01-19T18:39:18.550Z,100434.13
2023-01-19T18:41:46.468Z,100431.81
2023-01-19T18:44:15.658Z,100436.44
2023-01-19T18:46:43.613Z,100440.59
2023-01-19T18:49:11.515Z,100431.94
2023-01-19T18:51:40.457Z,100429.25
2023-01-19T18:54:08.886Z,100437.03
2023-01-19T18:56:36.733Z,100423.09
2023-01-19T18:59:05.062Z,100430.94
2023-01-19T19:01:35.257Z,100440.91
2023-01-19T19:04:03.561Z,100428.63
2023-01-19T19:06:31.525Z,100431.09
2023-01-19T19:09:00.298Z,100437.41
2023-01-19T19:11:31.389Z,100442.88
2023-01-19T19:14:00.800Z,100439.47
2023-01-19T19:16:29.762Z,100442.50
2023-01-19T19:19:00.352Z,100440.84
2023-01-19T19:21:28.846Z,100443.63
2023-01-19T19:23:58.516Z,100446.19
2023-01-19T19:26:28.310Z,100445.91
2023-01-19T19:28:56.629Z,100442.75
2023-01-19T19:31:26.160Z,100450.59
2023-01-19T19:33:54.999Z,100447.97
2023-01-19T19:36:25.068Z,100452.44
2023-01-19T19:38:52.986Z,100457.78
2023-01-19T19:41:23.697Z,100453.81
2023-01-19T19:43:51.716Z,100462.00
2023-01-19T19:46:21.246Z,100463.84
2023-01-19T19:48:49.920Z,100467.94
2023-01-19T19:51:22.520Z,100462.59
2023-01-19T19:53:56.152Z,100462.81
2023-01-19T19:56:25.690Z,100466.34
2023-01-19T19:58:55.764Z,100477.03
2023-01-19T20:01:27.724Z,100470.16
2023-01-19T20:03:57.390Z,100473.66
2023-01-19T20:06:26.549Z,100473.22
2023-01-19T20:08:57.555Z,100478.13
2023-01-19T20:11:28.140Z,100480.69
2023-01-19T20:13:56.198Z,100490.63
2023-01-19T20:16:25.488Z,100489.66
2023-01-19T20:18:55.160Z,100493.09
2023-01-19T20:21:26.022Z,100490.63
2023-01-19T20:23:56.527Z,100488.84
2023-01-19T20:26:26.621Z,100497.41
2023-01-19T20:28:55.220Z,100498.66
2023-01-19T20:31:25.280Z,100506.78
2023-01-19T20:33:54.286Z,100498.97
2023-01-19T20:36:24.295Z,100498.53
2023-01-19T20:38:52.795Z,100503.28
2023-01-19T20:41:23.599Z,100516.13
2023-01-19T20:43:51.987Z,100517.28
2023-01-19T20:46:20.458Z,100529.50
2023-01-19T20:48:52.974Z,100519.00
2023-01-19T20:51:22.364Z,100529.56
2023-01-19T20:53:50.181Z,100523.41
2023-01-19T20:56:18.187Z,100528.56
2023-01-19T20:58:47.667Z,100530.31
2023-01-19T21:01:18.123Z,100532.06
2023-01-19T21:03:46.817Z,100532.34
2023-01-19T21:06:15.712Z,100536.00
2023-01-19T21:08:44.033Z,100545.72
2023-01-19T21:11:13.169Z,100542.09
2023-01-19T21:13:41.009Z,100558.47
2023-01-19T21:16:10.752Z,100554.72
2023-01-19T21:18:38.662Z,100556.50
2023-01-19T21:21:09.100Z,100563.13
2023-01-19T21:23:38.930Z,100577.00
2023-01-19T21:26:07.006Z,100569.88
2023-01-19T21:28:34.898Z,100584.84
2023-01-19T21:31:07.731Z,100571.72
2023-01-19T21:33:37.219Z,100578.00
2023-01-19T21:36:05.439Z,100584.22
2023-01-19T21:38:33.702Z,100587.59
2023-01-19T21:41:07.275Z,100595.16
2023-01-19T21:43:37.282Z,100598.75
2023-01-19T21:46:12.327Z,100602.22
2023-01-19T21:48:41.607Z,100609.28
2023-01-19T21:51:09.857Z,100613.56
2023-01-19T21:53:37.808Z,100609.16
2023-01-19T21:56:07.970Z,100613.56
2023-01-19T21:58:36.025Z,100619.59
2023-01-19T22:01:06.093Z,100624.03
2023-01-19T22:03:34.030Z,100626.47
2023-01-19T22:06:07.016Z,100630.25
2023-01-19T22:08:35.685Z,100631.88
2023-01-19T22:11:05.618Z,100637.03
2023-01-19T22:13:34.003Z,100644.38
2023-01-19T22:16:02.534Z,100643.50
2023-01-19T22:18:30.792Z,100650.44
2023-01-19T22:21:09.989Z,100646.19
2023-01-19T22:23:38.117Z,100654.25
2023-01-19T22:26:06.462Z,100654.44
2023-01-19T22:28:35.172Z,100650.13
2023-01-19T22:31:07.396Z,100663.16
2023-01-19T22:33:35.463Z,100667.69
2023-01-19T22:36:15.767Z,100664.09
2023-01-19T22:38:44.832Z,100666.84
2023-01-19T22:41:14.976Z,100669.31
2023-01-19T22:43:43.081Z,100667.59
2023-01-19T22:46:11.304Z,100674.59
2023-01-19T22:48:40.469Z,100680.59
2023-01-19T22:51:08.700Z,100671.34
2023-01-19T22:53:38.011Z,100674.22
2023-01-19T22:56:13.836Z,100687.38
2023-01-19T22:58:44.182Z,100683.75
2023-01-19T23:01:12.931Z,100682.94
2023-01-19T23:03:41.445Z,100694.56
2023-01-19T23:06:11.901Z,100687.84
2023-01-19T23:08:41.790Z,100693.47
2023-01-19T23:11:12.789Z,100689.78
2023-01-19T23:13:40.898Z,100699.56
2023-01-19T23:16:09.475Z,100700.44
2023-01-19T23:18:37.811Z,100708.97
2023-01-19T23:21:08.688Z,100707.34
2023-01-19T23:23:37.665Z,100702.38
2023-01-19T23:26:09.739Z,100709.34
2023-01-19T23:28:39.343Z,100711.81
2023-01-19T23:31:17.719Z,100714.44
2023-01-19T23:33:46.000Z,100715.44
2023-01-19T23:36:14.461Z,100723.16
2023-01-19T23:38:42.998Z,100724.91
2023-01-19T23:41:12.240Z,100733.56
2023-01-19T23:43:40.127Z,100728.31
2023-01-19T23:46:09.830Z,100733.81
2023-01-19T23:48:37.960Z,100737.13
2023-01-19T23:51:09.593Z,100736.56
2023-01-19T23:53:38.107Z,100737.38
2023-01-19T23:56:17.441Z,100735.69
2023-01-19T23:58:45.868Z,100746.25
